Time;durP1;ratioP1;P1;durP2;ratioP2;P2;SDS_P1;SDS_P2;PMS_P1;PMS_P2;Temp;Humidity;BMP_temperature;BMP_pressure;BME280_temperature;BME280_humidity;BME280_pressure;Samples;Min_cycle;Max_cycle;Signal;HPM_P1;HPM_P2
2022/11/22 00:02:06;;;;;;;7.38;3.33;;;;;;;;;;5036440;28;20093;-64
2022/11/22 00:04:32;;;;;;;8.05;2.88;;;;;;;;;;5037480;28;20096;-65
2022/11/22 00:06:57;;;;;;;8.27;3.10;;;;;;;;;;5046287;28;20033;-66
2022/11/22 00:09:22;;;;;;;10.50;3.20;;;;;;;;;;5036664;28;20271;-65
2022/11/22 00:11:47;;;;;;;10.55;3.60;;;;;;;;;;5036019;28;20272;-65
2022/11/22 00:14:12;;;;;;;8.25;3.15;;;;;;;;;;5049568;28;20025;-65
2022/11/22 00:16:38;;;;;;;10.65;3.88;;;;;;;;;;5046489;28;20032;-66
2022/11/22 00:19:03;;;;;;;10.55;3.95;;;;;;;;;;5035910;28;20402;-65
2022/11/22 00:21:28;;;;;;;9.68;4.00;;;;;;;;;;5054332;28;20029;-65
2022/11/22 00:23:55;;;;;;;8.35;2.58;;;;;;;;;;5054100;28;20024;-65
2022/11/22 00:26:21;;;;;;;7.30;3.45;;;;;;;;;;5034743;28;20024;-65
2022/11/22 00:28:46;;;;;;;7.20;3.63;;;;;;;;;;5034795;28;20025;-65
2022/11/22 00:31:11;;;;;;;13.75;3.60;;;;;;;;;;5047936;28;20023;-65
2022/11/22 00:33:36;;;;;;;10.82;3.72;;;;;;;;;;5034811;28;20487;-65
2022/11/22 00:36:01;;;;;;;11.83;4.07;;;;;;;;;;5040446;28;20383;-65
2022/11/22 00:38:27;;;;;;;8.60;3.67;;;;;;;;;;5050960;28;20681;-65
2022/11/22 00:40:52;;;;;;;20.42;4.00;;;;;;;;;;5053846;28;20044;-65
2022/11/22 00:43:17;;;;;;;14.87;4.93;;;;;;;;;;5068863;28;20033;-64
2022/11/22 00:45:42;;;;;;;9.57;3.63;;;;;;;;;;5053709;28;20274;-64
2022/11/22 00:48:08;;;;;;;9.45;4.03;;;;;;;;;;5050292;28;20028;-65
2022/11/22 00:50:33;;;;;;;10.07;4.18;;;;;;;;;;5048804;28;20062;-65
2022/11/22 00:52:58;;;;;;;17.95;5.00;;;;;;;;;;5052944;28;20017;-65
2022/11/22 00:55:23;;;;;;;13.00;5.00;;;;;;;;;;5053476;28;20020;-65
2022/11/22 00:57:49;;;;;;;12.53;4.27;;;;;;;;;;5041159;28;20023;-65
2022/11/22 01:00:14;;;;;;;12.18;5.18;;;;;;;;;;5047597;28;20289;-64
2022/11/22 01:02:39;;;;;;;16.42;4.25;;;;;;;;;;5036229;28;20021;-65
2022/11/22 01:05:05;;;;;;;8.73;3.75;;;;;;;;;;5035765;28;20028;-65
2022/11/22 01:07:30;;;;;;;17.70;4.80;;;;;;;;;;5034965;28;20483;-65
2022/11/22 01:09:55;;;;;;;18.60;4.27;;;;;;;;;;5033307;28;20009;-65
2022/11/22 01:12:21;;;;;;;17.98;4.68;;;;;;;;;;5035262;28;20268;-65
2022/11/22 01:14:46;;;;;;;18.75;5.40;;;;;;;;;;5036834;28;20025;-65
2022/11/22 01:17:11;;;;;;;15.50;5.30;;;;;;;;;;5033605;28;20053;-64
2022/11/22 01:19:36;;;;;;;21.70;5.63;;;;;;;;;;5038871;28;20052;-65
2022/11/22 01:22:01;;;;;;;12.50;5.00;;;;;;;;;;5053430;28;20379;-65
2022/11/22 01:24:27;;;;;;;16.10;5.60;;;;;;;;;;5053087;28;20020;-65
2022/11/22 01:26:52;;;;;;;19.58;5.68;;;;;;;;;;5053523;28;20263;-64
2022/11/22 01:29:17;;;;;;;13.95;5.18;;;;;;;;;;5052679;28;20049;-65
2022/11/22 01:31:43;;;;;;;11.77;4.53;;;;;;;;;;5046764;28;20017;-65
2022/11/22 01:34:08;;;;;;;21.13;5.95;;;;;;;;;;5050601;28;20043;-66
2022/11/22 01:36:33;;;;;;;15.60;5.85;;;;;;;;;;5052950;28;20025;-65
2022/11/22 01:38:58;;;;;;;20.90;5.80;;;;;;;;;;5053097;28;20013;-65
2022/11/22 01:41:24;;;;;;;22.67;6.38;;;;;;;;;;5044927;28;20029;-65
2022/11/22 01:43:49;;;;;;;22.08;5.45;;;;;;;;;;5037018;28;20098;-65
2022/11/22 01:46:25;;;;;;;15.30;5.43;;;;;;;;;;5034955;28;20392;-65
2022/11/22 01:48:55;;;;;;;17.98;5.75;;;;;;;;;;5036537;28;20045;-65
2022/11/22 01:51:23;;;;;;;20.63;4.95;;;;;;;;;;5034628;28;20751;-65
2022/11/22 01:53:48;;;;;;;22.25;6.22;;;;;;;;;;5034718;28;20026;-65
2022/11/22 01:56:15;;;;;;;23.13;6.22;;;;;;;;;;5033908;28;20020;-64
2022/11/22 01:58:43;;;;;;;19.10;5.90;;;;;;;;;;5034553;28;20443;-65
2022/11/22 02:01:08;;;;;;;19.77;6.00;;;;;;;;;;5033753;28;20022;-65
2022/11/22 02:03:34;;;;;;;15.73;5.35;;;;;;;;;;5034145;28;20059;-65
2022/11/22 02:06:00;;;;;;;17.45;5.55;;;;;;;;;;5033992;28;20200;-65
2022/11/22 02:08:40;;;;;;;20.10;6.05;;;;;;;;;;5047038;28;20022;-66
2022/11/22 02:11:05;;;;;;;17.33;5.72;;;;;;;;;;5034398;28;20136;-65
2022/11/22 02:13:32;;;;;;;18.52;5.90;;;;;;;;;;5033290;28;20069;-65
2022/11/22 02:15:58;;;;;;;14.27;5.18;;;;;;;;;;5033420;28;20392;-66
2022/11/22 02:18:23;;;;;;;18.58;5.78;;;;;;;;;;5013327;28;20048;-65
2022/11/22 02:20:49;;;;;;;16.38;5.60;;;;;;;;;;5052007;28;20391;-66
2022/11/22 02:23:29;;;;;;;13.85;4.70;;;;;;;;;;5044522;28;20017;-65
2022/11/22 02:25:55;;;;;;;14.25;5.13;;;;;;;;;;5034131;28;20021;-66
2022/11/22 02:28:21;;;;;;;15.57;5.07;;;;;;;;;;5033391;28;20018;-65
2022/11/22 02:30:46;;;;;;;18.67;6.40;;;;;;;;;;5033924;28;20524;-66
2022/11/22 02:33:11;;;;;;;17.70;5.88;;;;;;;;;;5033213;28;20052;-66
2022/11/22 02:35:38;;;;;;;23.15;6.22;;;;;;;;;;5035355;28;20025;-66
2022/11/22 02:38:06;;;;;;;14.75;5.45;;;;;;;;;;5029348;28;20391;-66
2022/11/22 02:40:35;;;;;;;16.50;6.13;;;;;;;;;;5039767;28;20027;-67
2022/11/22 02:43:02;;;;;;;24.70;5.93;;;;;;;;;;5051820;28;20048;-66
2022/11/22 02:45:27;;;;;;;21.02;5.57;;;;;;;;;;5039253;28;20438;-65
2022/11/22 02:47:52;;;;;;;20.63;5.20;;;;;;;;;;5050906;28;20053;-65
2022/11/22 02:50:17;;;;;;;19.25;5.93;;;;;;;;;;5051622;28;20012;-65
2022/11/22 02:52:43;;;;;;;13.82;5.22;;;;;;;;;;5052283;28;20048;-66
2022/11/22 02:55:08;;;;;;;11.80;5.07;;;;;;;;;;5052099;28;20021;-65
2022/11/22 02:57:33;;;;;;;16.73;5.65;;;;;;;;;;5051681;28;20032;-65
2022/11/22 02:59:58;;;;;;;14.07;5.05;;;;;;;;;;5047002;28;20491;-66
2022/11/22 03:02:23;;;;;;;15.70;5.03;;;;;;;;;;5052068;28;20147;-65
2022/11/22 03:04:49;;;;;;;19.08;6.15;;;;;;;;;;5051148;28;20021;-66
2022/11/22 03:07:16;;;;;;;20.45;4.82;;;;;;;;;;5051801;28;20032;-66
2022/11/22 03:09:41;;;;;;;22.13;5.10;;;;;;;;;;5033311;28;20020;-65
2022/11/22 03:12:06;;;;;;;13.10;5.03;;;;;;;;;;5053451;28;20017;-66
2022/11/22 03:14:31;;;;;;;16.13;5.40;;;;;;;;;;5054071;28;20064;-66
2022/11/22 03:16:56;;;;;;;19.63;6.35;;;;;;;;;;5055740;28;20025;-65
2022/11/22 03:19:22;;;;;;;18.42;5.07;;;;;;;;;;5054258;28;20451;-65
2022/11/22 03:21:47;;;;;;;13.20;5.40;;;;;;;;;;5055591;28;20466;-66
2022/11/22 03:24:12;;;;;;;26.13;6.47;;;;;;;;;;5055547;28;20020;-66
2022/11/22 03:26:38;;;;;;;25.98;5.70;;;;;;;;;;5051254;28;20036;-65
2022/11/22 03:29:04;;;;;;;15.30;4.68;;;;;;;;;;5040575;28;20470;-66
2022/11/22 03:31:29;;;;;;;14.35;5.32;;;;;;;;;;5034318;28;20079;-65
2022/11/22 03:33:54;;;;;;;13.20;4.68;;;;;;;;;;5037835;28;20017;-66
2022/11/22 03:36:20;;;;;;;13.73;6.20;;;;;;;;;;5053071;28;20045;-66
2022/11/22 03:38:45;;;;;;;13.30;4.82;;;;;;;;;;5054497;28;20009;-66
2022/11/22 03:41:10;;;;;;;15.57;5.00;;;;;;;;;;5054935;28;20029;-66
2022/11/22 03:43:36;;;;;;;36.13;6.10;;;;;;;;;;5037537;28;20711;-66
2022/11/22 03:46:01;;;;;;;12.88;4.38;;;;;;;;;;5044080;28;20872;-66
2022/11/22 03:48:26;;;;;;;13.70;4.65;;;;;;;;;;5032506;28;20108;-66
2022/11/22 03:50:52;;;;;;;20.10;4.55;;;;;;;;;;5033058;28;20026;-67
2022/11/22 03:53:17;;;;;;;14.40;4.80;;;;;;;;;;5051101;28;20383;-66
2022/11/22 03:55:42;;;;;;;15.75;4.28;;;;;;;;;;5047247;28;20376;-66
2022/11/22 03:58:07;;;;;;;12.98;4.03;;;;;;;;;;5035545;28;20040;-66
2022/11/22 04:00:33;;;;;;;18.42;5.18;;;;;;;;;;5035723;28;20048;-66
2022/11/22 04:02:58;;;;;;;9.05;3.90;;;;;;;;;;5036146;28;20456;-66
2022/11/22 04:05:24;;;;;;;14.55;4.75;;;;;;;;;;5043292;28;20764;-66
2022/11/22 04:07:54;;;;;;;22.10;5.00;;;;;;;;;;5040693;28;20025;-66
2022/11/22 04:10:20;;;;;;;10.38;4.13;;;;;;;;;;5050234;28;20020;-66
2022/11/22 04:12:45;;;;;;;11.95;4.25;;;;;;;;;;5054807;28;20016;-66
2022/11/22 04:15:10;;;;;;;14.00;4.65;;;;;;;;;;5041448;28;20021;-66
2022/11/22 04:17:40;;;;;;;11.27;3.97;;;;;;;;;;5053241;28;20051;-66
2022/11/22 04:23:09;;;;;;;21.17;4.82;;;;;;;;;;5053910;28;20442;-67
2022/11/22 04:25:34;;;;;;;;;;;;;;;;;;5054775;28;20033;-66
2022/11/22 04:28:00;;;;;;;18.05;4.63;;;;;;;;;;5054070;28;19919;-66
2022/11/22 04:33:12;;;;;;;16.27;3.97;;;;;;;;;;5053933;28;20040;-66
2022/11/22 04:35:37;;;;;;;20.65;5.82;;;;;;;;;;5048308;28;20021;-65
2022/11/22 04:38:03;;;;;;;15.02;4.70;;;;;;;;;;5051732;28;20021;-65
2022/11/22 04:40:28;;;;;;;15.20;4.50;;;;;;;;;;5051712;28;20071;-66
2022/11/22 04:45:37;;;;;;;10.25;3.40;;;;;;;;;;5054842;28;20043;-66
2022/11/22 04:48:02;;;;;;;12.90;4.57;;;;;;;;;;5049884;28;20442;-65
2022/11/22 04:53:24;;;;;;;12.45;3.75;;;;;;;;;;5008357;28;20130;-66
2022/11/22 04:55:49;;;;;;;18.45;4.50;;;;;;;;;;5049145;28;20029;-65
2022/11/22 04:58:14;;;;;;;16.08;4.40;;;;;;;;;;5054226;28;20070;-66
2022/11/22 05:00:40;;;;;;;11.27;4.10;;;;;;;;;;5053749;28;20104;-66
2022/11/22 05:03:05;;;;;;;15.85;4.95;;;;;;;;;;5053984;28;20032;-67
2022/11/22 05:05:33;;;;;;;11.07;3.40;;;;;;;;;;5051650;28;20032;-67
2022/11/22 05:07:58;;;;;;;17.60;4.15;;;;;;;;;;5043208;28;20028;-66
2022/11/22 05:10:24;;;;;;;17.88;4.72;;;;;;;;;;5036631;28;20013;-67
2022/11/22 05:12:49;;;;;;;13.13;4.32;;;;;;;;;;5032413;28;20029;-66
2022/11/22 05:15:14;;;;;;;22.50;4.72;;;;;;;;;;5047945;28;20029;-67
2022/11/22 05:17:39;;;;;;;21.80;4.25;;;;;;;;;;5051344;28;20020;-66
2022/11/22 05:20:06;;;;;;;21.38;5.20;;;;;;;;;;5047899;28;20056;-66
2022/11/22 05:25:15;;;;;;;20.45;4.55;;;;;;;;;;5050129;28;20556;-66
2022/11/22 05:27:40;;;;;;;19.55;5.65;;;;;;;;;;5053054;28;20021;-67
2022/11/22 05:30:06;;;;;;;13.05;4.38;;;;;;;;;;5052957;28;20013;-66
2022/11/22 05:32:31;;;;;;;17.90;4.82;;;;;;;;;;5053628;28;20028;-66
2022/11/22 05:34:57;;;;;;;16.25;4.55;;;;;;;;;;5038998;28;20582;-66
2022/11/22 05:37:22;;;;;;;16.77;4.95;;;;;;;;;;5052840;28;20406;-66
2022/11/22 05:39:47;;;;;;;13.13;4.13;;;;;;;;;;5052957;28;20029;-66
2022/11/22 05:42:12;;;;;;;14.82;4.47;;;;;;;;;;5046313;28;20079;-66
2022/11/22 05:44:38;;;;;;;17.42;3.92;;;;;;;;;;5046195;28;20452;-66
2022/11/22 05:47:03;;;;;;;13.43;4.38;;;;;;;;;;5033835;28;20022;-66
2022/11/22 05:49:28;;;;;;;18.27;4.30;;;;;;;;;;5036565;28;20476;-66
2022/11/22 05:51:53;;;;;;;14.85;4.90;;;;;;;;;;5043584;28;20800;-66
2022/11/22 05:54:19;;;;;;;19.40;5.17;;;;;;;;;;5036377;28;20009;-67
2022/11/22 05:56:44;;;;;;;13.95;4.07;;;;;;;;;;5043556;28;20677;-65
2022/11/22 05:59:09;;;;;;;11.75;4.30;;;;;;;;;;5035480;28;20020;-66
2022/11/22 06:01:34;;;;;;;15.15;4.13;;;;;;;;;;5049232;28;20471;-67
2022/11/22 06:04:00;;;;;;;17.05;3.95;;;;;;;;;;5053007;28;20017;-67
2022/11/22 06:06:25;;;;;;;7.32;3.45;;;;;;;;;;5050429;28;20025;-67
2022/11/22 06:08:50;;;;;;;18.23;4.80;;;;;;;;;;5046427;28;20033;-67
2022/11/22 06:11:20;;;;;;;19.25;4.82;;;;;;;;;;5049678;28;20017;-67
2022/11/22 06:13:46;;;;;;;13.68;4.50;;;;;;;;;;5050747;28;20032;-67
2022/11/22 06:16:11;;;;;;;26.92;5.13;;;;;;;;;;5051856;28;20013;-67
2022/11/22 06:18:37;;;;;;;16.88;4.32;;;;;;;;;;5052086;28;20143;-67
2022/11/22 06:21:03;;;;;;;10.93;4.60;;;;;;;;;;5043897;28;20413;-67
2022/11/22 06:23:29;;;;;;;7.82;3.60;;;;;;;;;;5036442;28;20017;-67
2022/11/22 06:26:01;;;;;;;13.30;4.45;;;;;;;;;;5034480;28;20029;-67
2022/11/22 06:28:30;;;;;;;9.93;4.18;;;;;;;;;;5036160;28;20063;-67
2022/11/22 06:31:06;;;;;;;10.98;3.83;;;;;;;;;;5034213;28;20022;-67
2022/11/22 06:33:31;;;;;;;11.63;3.88;;;;;;;;;;5045788;28;20052;-66
2022/11/22 06:36:03;;;;;;;16.20;4.60;;;;;;;;;;5042370;28;20099;-67
2022/11/22 06:38:29;;;;;;;11.43;4.22;;;;;;;;;;5039645;28;20025;-66
2022/11/22 06:41:04;;;;;;;14.30;3.83;;;;;;;;;;5041424;28;20475;-67
2022/11/22 06:43:30;;;;;;;10.43;3.42;;;;;;;;;;5048091;28;20037;-67
2022/11/22 06:45:56;;;;;;;11.80;3.72;;;;;;;;;;5048552;28;20386;-67
2022/11/22 06:48:21;;;;;;;9.30;3.63;;;;;;;;;;5047620;28;20024;-67
2022/11/22 06:50:47;;;;;;;18.38;3.78;;;;;;;;;;5048768;28;20021;-67
2022/11/22 06:53:12;;;;;;;16.15;4.57;;;;;;;;;;5049145;28;20071;-67
2022/11/22 06:55:37;;;;;;;18.98;3.75;;;;;;;;;;5047335;28;20467;-65
2022/11/22 06:58:02;;;;;;;13.23;4.43;;;;;;;;;;5047496;28;20040;-67
2022/11/22 07:00:28;;;;;;;14.88;4.60;;;;;;;;;;5044836;28;20082;-67
2022/11/22 07:02:53;;;;;;;8.35;3.60;;;;;;;;;;5043291;28;20460;-66
2022/11/22 07:05:18;;;;;;;14.48;4.18;;;;;;;;;;5044853;28;20378;-67
2022/11/22 07:07:43;;;;;;;13.88;3.83;;;;;;;;;;5043047;28;20021;-67
2022/11/22 07:10:09;;;;;;;14.48;3.78;;;;;;;;;;5040668;28;20021;-67
2022/11/22 07:12:34;;;;;;;8.73;2.75;;;;;;;;;;5043311;28;20025;-67
2022/11/22 07:14:59;;;;;;;14.70;3.25;;;;;;;;;;5045583;28;20025;-67
2022/11/22 07:17:24;;;;;;;6.07;3.00;;;;;;;;;;5043817;28;20059;-67
2022/11/22 07:19:50;;;;;;;13.07;3.88;;;;;;;;;;5049298;28;20025;-67
2022/11/22 07:22:15;;;;;;;11.82;3.75;;;;;;;;;;5042841;28;20041;-67
2022/11/22 07:24:40;;;;;;;14.35;3.35;;;;;;;;;;5045039;28;20104;-67
2022/11/22 07:27:05;;;;;;;22.65;3.15;;;;;;;;;;5042308;28;20041;-67
2022/11/22 07:29:31;;;;;;;19.70;3.45;;;;;;;;;;5046493;28;20037;-68
2022/11/22 07:31:56;;;;;;;8.95;2.83;;;;;;;;;;5035032;28;20460;-67
2022/11/22 07:34:21;;;;;;;6.03;2.55;;;;;;;;;;5032259;28;20104;-67
2022/11/22 07:36:46;;;;;;;12.05;3.60;;;;;;;;;;5029921;28;20061;-68
2022/11/22 07:39:12;;;;;;;9.73;3.03;;;;;;;;;;5031984;28;20464;-67
2022/11/22 07:41:37;;;;;;;11.85;3.38;;;;;;;;;;5032530;28;20025;-67
2022/11/22 07:44:02;;;;;;;11.15;3.25;;;;;;;;;;5042454;28;20452;-67
2022/11/22 07:46:29;;;;;;;10.55;3.05;;;;;;;;;;5038459;28;20025;-68
2022/11/22 07:48:55;;;;;;;12.07;3.38;;;;;;;;;;5020413;28;20079;-68
2022/11/22 07:51:20;;;;;;;9.43;2.92;;;;;;;;;;5035924;28;20739;-67
2022/11/22 07:53:45;;;;;;;10.43;3.25;;;;;;;;;;5035481;28;20430;-68
2022/11/22 07:56:11;;;;;;;6.28;2.72;;;;;;;;;;5037275;28;20060;-67
2022/11/22 07:58:37;;;;;;;10.55;3.03;;;;;;;;;;5041784;28;20048;-66
2022/11/22 08:01:06;;;;;;;9.48;2.75;;;;;;;;;;5045394;28;20041;-67
2022/11/22 08:03:31;;;;;;;7.70;2.50;;;;;;;;;;5043382;28;20108;-67
2022/11/22 08:05:59;;;;;;;20.15;2.47;;;;;;;;;;5042991;28;20515;-67
2022/11/22 08:08:25;;;;;;;14.20;2.55;;;;;;;;;;5044388;28;20024;-67
2022/11/22 08:10:50;;;;;;;11.00;2.80;;;;;;;;;;5043019;28;20021;-67
2022/11/22 08:13:15;;;;;;;12.82;2.63;;;;;;;;;;5042467;28;20025;-67
2022/11/22 08:15:40;;;;;;;8.23;2.25;;;;;;;;;;5048868;28;20029;-67
2022/11/22 08:18:06;;;;;;;11.77;2.40;;;;;;;;;;5046619;28;20082;-69
2022/11/22 08:20:31;;;;;;;8.48;2.67;;;;;;;;;;5047280;28;20043;-68
2022/11/22 08:22:56;;;;;;;13.13;3.15;;;;;;;;;;5044818;28;20120;-68
2022/11/22 08:25:21;;;;;;;10.52;2.75;;;;;;;;;;5041942;28;20554;-68
2022/11/22 08:27:47;;;;;;;8.88;2.42;;;;;;;;;;5045342;28;20383;-68
2022/11/22 08:30:12;;;;;;;7.43;2.17;;;;;;;;;;5044218;28;20056;-68
2022/11/22 08:32:37;;;;;;;12.07;2.65;;;;;;;;;;5049703;28;20028;-67
2022/11/22 08:35:02;;;;;;;13.93;2.58;;;;;;;;;;5042151;28;20020;-68
2022/11/22 08:37:28;;;;;;;6.95;2.33;;;;;;;;;;5045303;28;20029;-68
2022/11/22 08:39:53;;;;;;;6.85;2.10;;;;;;;;;;5041875;28;20242;-66
2022/11/22 08:42:18;;;;;;;6.32;1.95;;;;;;;;;;5050460;28;20044;-68
2022/11/22 08:44:43;;;;;;;7.88;1.95;;;;;;;;;;5046737;28;20021;-67
2022/11/22 08:47:09;;;;;;;5.20;2.00;;;;;;;;;;5052691;28;20017;-68
2022/11/22 08:49:34;;;;;;;8.20;2.03;;;;;;;;;;5051800;28;20155;-68
2022/11/22 08:51:59;;;;;;;3.78;1.63;;;;;;;;;;5051312;28;20546;-68
2022/11/22 08:54:24;;;;;;;4.28;1.80;;;;;;;;;;5048136;28;20364;-67
2022/11/22 08:56:50;;;;;;;5.75;1.90;;;;;;;;;;5032853;28;20029;-69
2022/11/22 08:59:15;;;;;;;8.68;1.90;;;;;;;;;;5032094;28;20021;-67
2022/11/22 09:01:40;;;;;;;9.43;2.03;;;;;;;;;;5041576;28;20482;-68
2022/11/22 09:04:05;;;;;;;8.50;2.10;;;;;;;;;;5050486;28;20448;-67
2022/11/22 09:06:31;;;;;;;13.30;2.08;;;;;;;;;;5051309;28;20379;-67
2022/11/22 09:08:56;;;;;;;4.32;1.27;;;;;;;;;;5050394;28;20382;-67
2022/11/22 09:11:21;;;;;;;4.32;1.90;;;;;;;;;;5050678;28;20056;-68
2022/11/22 09:13:46;;;;;;;6.97;1.90;;;;;;;;;;5050754;28;20016;-67
2022/11/22 09:16:13;;;;;;;5.80;1.73;;;;;;;;;;5051479;28;20037;-68
2022/11/22 09:18:38;;;;;;;6.25;1.85;;;;;;;;;;5051213;28;20436;-66
2022/11/22 09:21:05;;;;;;;4.95;1.40;;;;;;;;;;5048095;28;20056;-68
2022/11/22 09:23:31;;;;;;;3.53;1.20;;;;;;;;;;5049472;28;20100;-67
2022/11/22 09:26:06;;;;;;;8.65;1.92;;;;;;;;;;5049446;28;20096;-67
2022/11/22 09:28:32;;;;;;;3.33;1.65;;;;;;;;;;5046724;28;20159;-68
2022/11/22 09:31:01;;;;;;;9.57;2.08;;;;;;;;;;5048505;28;20116;-67
2022/11/22 09:33:27;;;;;;;5.40;1.60;;;;;;;;;;5050719;28;20511;-66
2022/11/22 09:35:57;;;;;;;4.72;1.52;;;;;;;;;;5044362;28;20103;-68
2022/11/22 09:38:23;;;;;;;5.93;1.60;;;;;;;;;;5050441;28;20368;-67
2022/11/22 09:40:48;;;;;;;3.95;1.70;;;;;;;;;;5050198;28;20025;-68
2022/11/22 09:43:20;;;;;;;5.63;1.33;;;;;;;;;;5050378;28;20036;-68
2022/11/22 09:45:45;;;;;;;3.47;1.50;;;;;;;;;;5050912;28;20275;-68
2022/11/22 09:48:26;;;;;;;4.37;1.40;;;;;;;;;;5050322;28;20068;-68
2022/11/22 09:51:05;;;;;;;5.53;1.30;;;;;;;;;;5049250;28;20351;-68
2022/11/22 09:53:40;;;;;;;3.45;1.13;;;;;;;;;;5047398;28;20028;-68
2022/11/22 09:56:05;;;;;;;;;;;;;;;;;;5049738;28;20017;-67
2022/11/22 09:58:41;;;;;;;4.10;1.40;;;;;;;;;;5036318;28;19913;-66
2022/11/22 10:01:12;;;;;;;2.33;1.13;;;;;;;;;;5038527;28;20112;-67
2022/11/22 10:03:49;;;;;;;5.07;1.00;;;;;;;;;;5036222;28;20056;-68
2022/11/22 10:06:21;;;;;;;2.83;0.93;;;;;;;;;;5037686;28;20468;-68
2022/11/22 10:08:58;;;;;;;4.05;1.10;;;;;;;;;;5045889;28;20098;-68
2022/11/22 10:11:43;;;;;;;3.13;1.15;;;;;;;;;;5041368;28;20021;-67
2022/11/22 10:14:27;;;;;;;3.35;1.10;;;;;;;;;;5033937;28;20501;-68
2022/11/22 10:17:00;;;;;;;2.07;0.77;;;;;;;;;;5040352;28;20017;-68
2022/11/22 10:19:30;;;;;;;2.45;0.80;;;;;;;;;;5052004;28;20749;-68
2022/11/22 10:21:55;;;;;;;2.03;0.90;;;;;;;;;;5044410;28;20086;-68
2022/11/22 10:24:21;;;;;;;2.90;0.90;;;;;;;;;;5041737;28;20060;-67
2022/11/22 10:26:46;;;;;;;1.92;0.80;;;;;;;;;;5042247;28;20068;-68
2022/11/22 10:29:18;;;;;;;2.20;0.80;;;;;;;;;;5046811;28;20068;-68
2022/11/22 10:32:06;;;;;;;1.77;0.52;;;;;;;;;;5033870;28;20467;-67
2022/11/22 10:34:46;;;;;;;2.95;0.65;;;;;;;;;;5034017;28;20030;-68
2022/11/22 10:37:19;;;;;;;1.85;0.57;;;;;;;;;;5037033;28;20527;-67
2022/11/22 10:39:45;;;;;;;2.72;0.80;;;;;;;;;;5041899;28;20076;-68
2022/11/22 10:42:29;;;;;;;2.58;0.80;;;;;;;;;;5051941;28;20040;-68
2022/11/22 10:44:54;;;;;;;2.03;0.65;;;;;;;;;;5043566;28;20029;-66
2022/11/22 10:47:31;;;;;;;3.78;0.90;;;;;;;;;;5042543;28;20120;-67
2022/11/22 10:49:57;;;;;;;1.67;0.77;;;;;;;;;;5044598;28;20013;-66
2022/11/22 10:52:25;;;;;;;1.70;0.68;;;;;;;;;;5043608;28;20014;-67
2022/11/22 10:55:02;;;;;;;1.40;0.57;;;;;;;;;;5048755;28;20491;-68
2022/11/22 10:57:34;;;;;;;2.67;0.80;;;;;;;;;;5045300;28;20021;-68
2022/11/22 11:00:00;;;;;;;1.73;0.70;;;;;;;;;;5048228;28;20033;-68
2022/11/22 11:02:43;;;;;;;6.22;0.80;;;;;;;;;;5042668;28;20083;-70
2022/11/22 11:05:11;;;;;;;2.10;0.70;;;;;;;;;;5051494;28;20032;-69
2022/11/22 11:07:37;;;;;;;1.23;0.50;;;;;;;;;;5048714;28;20029;-68
2022/11/22 11:10:03;;;;;;;2.95;0.65;;;;;;;;;;5050163;28;20032;-69
2022/11/22 11:12:41;;;;;;;1.48;0.60;;;;;;;;;;5048864;28;20021;-68
2022/11/22 11:15:13;;;;;;;0.90;0.38;;;;;;;;;;5043104;28;20422;-68
2022/11/22 11:17:38;;;;;;;1.13;0.40;;;;;;;;;;5051123;28;20459;-68
2022/11/22 11:20:09;;;;;;;2.35;0.65;;;;;;;;;;5039842;28;20024;-68
2022/11/22 11:22:35;;;;;;;0.85;0.45;;;;;;;;;;5051688;28;20020;-68
2022/11/22 11:25:24;;;;;;;1.45;0.52;;;;;;;;;;5050014;28;20410;-68
2022/11/22 11:27:49;;;;;;;5.40;0.70;;;;;;;;;;5039839;28;20045;-68
2022/11/22 11:30:15;;;;;;;2.05;0.60;;;;;;;;;;5037988;28;20028;-68
2022/11/22 11:32:50;;;;;;;1.55;0.60;;;;;;;;;;5050756;28;20032;-68
2022/11/22 11:35:16;;;;;;;1.52;0.47;;;;;;;;;;5046063;28;20018;-67
2022/11/22 11:37:41;;;;;;;4.72;0.65;;;;;;;;;;5040429;28;20078;-68
2022/11/22 11:40:24;;;;;;;1.75;0.60;;;;;;;;;;5045788;28;20024;-68
2022/11/22 11:43:09;;;;;;;1.48;0.57;;;;;;;;;;5050236;28;20852;-68
2022/11/22 11:45:35;;;;;;;1.73;0.52;;;;;;;;;;5054735;28;20025;-68
2022/11/22 11:48:00;;;;;;;0.80;0.30;;;;;;;;;;5051204;28;20040;-69
2022/11/22 11:50:26;;;;;;;0.82;0.40;;;;;;;;;;5051253;28;20033;-69
2022/11/22 11:52:53;;;;;;;1.50;0.50;;;;;;;;;;5054180;28;20028;-70
2022/11/22 11:55:19;;;;;;;0.70;0.32;;;;;;;;;;5053080;28;20012;-68
2022/11/22 11:57:45;;;;;;;6.45;0.63;;;;;;;;;;5050426;28;20021;-67
2022/11/22 12:00:18;;;;;;;1.80;0.55;;;;;;;;;;5051564;28;20108;-68
2022/11/22 12:02:45;;;;;;;1.23;0.57;;;;;;;;;;5057234;28;20033;-68
2022/11/22 12:05:13;;;;;;;1.48;0.50;;;;;;;;;;5055307;28;20051;-67
2022/11/22 12:07:40;;;;;;;0.77;0.30;;;;;;;;;;5052179;28;20028;-66
2022/11/22 12:10:24;;;;;;;1.27;0.40;;;;;;;;;;5049514;28;20020;-67
2022/11/22 12:12:52;;;;;;;0.85;0.40;;;;;;;;;;5051836;28;20025;-69
2022/11/22 12:15:24;;;;;;;0.90;0.38;;;;;;;;;;5040069;28;20051;-69
2022/11/22 12:18:03;;;;;;;1.17;0.40;;;;;;;;;;5053798;28;20043;-69
2022/11/22 12:20:48;;;;;;;1.92;0.43;;;;;;;;;;5051574;28;20074;-69
2022/11/22 12:23:17;;;;;;;1.80;0.28;;;;;;;;;;5018568;28;20029;-69
2022/11/22 12:25:42;;;;;;;2.33;0.55;;;;;;;;;;5053495;28;20075;-71
2022/11/22 12:28:15;;;;;;;0.95;0.30;;;;;;;;;;5047103;28;20017;-71
2022/11/22 12:30:43;;;;;;;2.42;0.50;;;;;;;;;;5054014;28;20041;-72
2022/11/22 12:33:13;;;;;;;1.27;0.40;;;;;;;;;;5047089;28;20049;-68
2022/11/22 12:35:41;;;;;;;0.40;0.20;;;;;;;;;;5046751;28;20076;-68
2022/11/22 12:38:10;;;;;;;2.63;0.50;;;;;;;;;;5049265;28;20044;-69
2022/11/22 12:40:40;;;;;;;1.00;0.50;;;;;;;;;;5047196;28;20025;-65
2022/11/22 12:43:19;;;;;;;1.23;0.45;;;;;;;;;;5052103;28;20048;-64
2022/11/22 12:46:03;;;;;;;0.88;0.40;;;;;;;;;;5050040;28;20104;-68
2022/11/22 12:48:32;;;;;;;5.57;0.80;;;;;;;;;;5051366;28;20024;-67
2022/11/22 12:51:04;;;;;;;1.77;0.80;;;;;;;;;;5051214;28;20356;-67
2022/11/22 12:53:31;;;;;;;1.02;0.30;;;;;;;;;;5049968;28;20026;-68
2022/11/22 12:56:09;;;;;;;1.17;0.22;;;;;;;;;;5050613;28;20104;-69
2022/11/22 12:58:52;;;;;;;1.88;0.70;;;;;;;;;;5050731;28;20037;-69
2022/11/22 13:01:27;;;;;;;1.10;0.45;;;;;;;;;;5045774;28;20029;-67
2022/11/22 13:03:55;;;;;;;0.70;0.22;;;;;;;;;;5046660;28;20041;-68
2022/11/22 13:06:25;;;;;;;0.40;0.20;;;;;;;;;;5053112;28;20017;-67
2022/11/22 13:08:57;;;;;;;1.77;0.40;;;;;;;;;;5052530;28;20025;-68
2022/11/22 13:11:27;;;;;;;1.40;0.40;;;;;;;;;;5052473;28;20372;-67
2022/11/22 13:13:57;;;;;;;0.82;0.30;;;;;;;;;;5051497;28;20025;-68
2022/11/22 13:16:22;;;;;;;0.85;0.40;;;;;;;;;;5054196;28;20050;-68
2022/11/22 13:18:56;;;;;;;1.52;0.30;;;;;;;;;;5051989;28;20531;-68
2022/11/22 13:21:27;;;;;;;0.43;0.17;;;;;;;;;;5044824;28;20044;-68
2022/11/22 13:24:15;;;;;;;0.68;0.30;;;;;;;;;;5051314;28;20491;-67
2022/11/22 13:26:50;;;;;;;1.10;0.35;;;;;;;;;;5045542;28;20090;-69
2022/11/22 13:29:29;;;;;;;0.70;0.30;;;;;;;;;;5049729;28;20028;-69
2022/11/22 13:32:01;;;;;;;0.85;0.43;;;;;;;;;;5049979;28;20044;-67
2022/11/22 13:34:26;;;;;;;1.20;0.30;;;;;;;;;;5041768;28;20043;-70
2022/11/22 13:36:52;;;;;;;1.23;0.40;;;;;;;;;;5050533;28;20020;-67
2022/11/22 13:39:19;;;;;;;1.20;0.50;;;;;;;;;;5052936;28;20032;-68
2022/11/22 13:41:47;;;;;;;0.90;0.30;;;;;;;;;;5050437;28;20107;-68
2022/11/22 13:44:15;;;;;;;0.88;0.20;;;;;;;;;;5050469;28;20128;-69
2022/11/22 13:46:49;;;;;;;0.75;0.40;;;;;;;;;;5052857;28;20090;-68
2022/11/22 13:49:27;;;;;;;0.65;0.22;;;;;;;;;;5051713;28;20028;-67
2022/11/22 13:51:53;;;;;;;2.40;0.40;;;;;;;;;;5051052;28;20107;-68
2022/11/22 13:54:31;;;;;;;1.48;0.40;;;;;;;;;;5051204;28;20139;-68
2022/11/22 13:57:04;;;;;;;0.90;0.35;;;;;;;;;;5044662;28;20021;-67
2022/11/22 13:59:29;;;;;;;0.55;0.28;;;;;;;;;;5051955;28;20020;-70
2022/11/22 14:01:56;;;;;;;0.52;0.20;;;;;;;;;;5041611;28;20035;-67
2022/11/22 14:04:27;;;;;;;1.30;0.30;;;;;;;;;;5046268;28;20021;-68
2022/11/22 14:07:04;;;;;;;0.77;0.40;;;;;;;;;;5049282;28;20024;-69
2022/11/22 14:09:35;;;;;;;0.77;0.30;;;;;;;;;;5051479;28;20115;-69
2022/11/22 14:12:04;;;;;;;1.40;0.50;;;;;;;;;;5053106;28;20017;-78
2022/11/22 14:14:29;;;;;;;0.65;0.20;;;;;;;;;;5050849;28;20021;-76
2022/11/22 14:17:14;;;;;;;1.80;0.50;;;;;;;;;;5047906;28;20025;-67
2022/11/22 14:19:49;;;;;;;2.70;0.60;;;;;;;;;;5037990;28;20785;-67
2022/11/22 14:22:50;;;;;;;1.02;0.40;;;;;;;;;;5045303;28;20028;-68
2022/11/22 14:25:27;;;;;;;2.50;0.60;;;;;;;;;;5010426;28;20025;-69
2022/11/22 14:27:59;;;;;;;4.85;0.50;;;;;;;;;;5040373;28;20037;-68
2022/11/22 14:30:37;;;;;;;1.52;0.60;;;;;;;;;;5041664;28;20020;-68
2022/11/22 14:33:03;;;;;;;0.93;0.47;;;;;;;;;;5051152;28;20023;-67
2022/11/22 14:35:33;;;;;;;0.95;0.35;;;;;;;;;;5051405;28;20067;-68
2022/11/22 14:38:01;;;;;;;1.77;0.70;;;;;;;;;;5047463;28;20040;-68
2022/11/22 14:40:30;;;;;;;1.33;0.50;;;;;;;;;;5051243;28;20025;-69
2022/11/22 14:43:00;;;;;;;1.75;0.60;;;;;;;;;;5049254;28;20471;-68
2022/11/22 14:45:38;;;;;;;3.28;0.70;;;;;;;;;;5051633;28;20029;-67
2022/11/22 14:48:12;;;;;;;2.53;0.93;;;;;;;;;;5037221;28;20033;-68
2022/11/22 14:50:42;;;;;;;1.60;0.70;;;;;;;;;;5049270;28;20070;-68
2022/11/22 14:53:10;;;;;;;1.02;0.50;;;;;;;;;;5050456;28;20055;-68
2022/11/22 14:55:36;;;;;;;1.63;0.73;;;;;;;;;;5042798;28;20029;-68
2022/11/22 14:58:06;;;;;;;1.58;0.60;;;;;;;;;;5046498;28;20025;-72